sensor_id;sensor_type;location;lat;lon;timestamp;P1;durP1;ratioP1;P2;durP2;ratioP2
42726;SDS011;28372;56.832;60.658;2023-02-12T00:01:22;8.30;;;3.92;;
42726;SDS011;28372;56.832;60.658;2023-02-12T00:03:51;8.60;;;4.00;;
42726;SDS011;28372;56.832;60.658;2023-02-12T00:06:18;8.65;;;3.92;;
42726;SDS011;28372;56.832;60.658;2023-02-12T00:08:50;11.30;;;4.40;;
42726;SDS011;28372;56.832;60.658;2023-02-12T00:11:21;8.93;;;3.97;;
42726;SDS011;28372;56.832;60.658;2023-02-12T00:13:50;8.98;;;4.25;;
42726;SDS011;28372;56.832;60.658;2023-02-12T00:16:21;9.43;;;4.47;;
42726;SDS011;28372;56.832;60.658;2023-02-12T00:18:51;10.32;;;4.13;;
42726;SDS011;28372;56.832;60.658;2023-02-12T00:21:20;9.48;;;4.22;;
42726;SDS011;28372;56.832;60.658;2023-02-12T00:23:49;9.38;;;4.25;;
42726;SDS011;28372;56.832;60.658;2023-02-12T00:26:17;7.95;;;4.20;;
42726;SDS011;28372;56.832;60.658;2023-02-12T00:28:49;9.07;;;4.20;;
42726;SDS011;28372;56.832;60.658;2023-02-12T00:31:18;9.52;;;3.80;;
42726;SDS011;28372;56.832;60.658;2023-02-12T00:33:51;9.93;;;4.30;;
42726;SDS011;28372;56.832;60.658;2023-02-12T00:36:20;8.50;;;4.22;;
42726;SDS011;28372;56.832;60.658;2023-02-12T00:38:50;8.57;;;4.03;;
42726;SDS011;28372;56.832;60.658;2023-02-12T00:41:20;9.18;;;4.70;;
42726;SDS011;28372;56.832;60.658;2023-02-12T00:43:48;9.82;;;4.40;;
42726;SDS011;28372;56.832;60.658;2023-02-12T00:46:16;8.98;;;3.92;;
42726;SDS011;28372;56.832;60.658;2023-02-12T00:48:44;8.52;;;3.85;;
42726;SDS011;28372;56.832;60.658;2023-02-12T00:51:12;7.10;;;4.00;;
42726;SDS011;28372;56.832;60.658;2023-02-12T00:53:40;9.85;;;4.00;;
42726;SDS011;28372;56.832;60.658;2023-02-12T00:56:08;8.80;;;4.38;;
42726;SDS011;28372;56.832;60.658;2023-02-12T00:58:35;7.85;;;4.30;;
42726;SDS011;28372;56.832;60.658;2023-02-12T01:01:05;8.07;;;3.92;;
42726;SDS011;28372;56.832;60.658;2023-02-12T01:03:34;9.00;;;4.20;;
42726;SDS011;28372;56.832;60.658;2023-02-12T01:06:02;11.90;;;4.63;;
42726;SDS011;28372;56.832;60.658;2023-02-12T01:08:31;7.95;;;4.00;;
42726;SDS011;28372;56.832;60.658;2023-02-12T01:11:00;9.18;;;4.38;;
42726;SDS011;28372;56.832;60.658;2023-02-12T01:13:30;9.18;;;4.38;;
42726;SDS011;28372;56.832;60.658;2023-02-12T01:16:03;9.80;;;4.45;;
42726;SDS011;28372;56.832;60.658;2023-02-12T01:18:35;8.55;;;4.05;;
42726;SDS011;28372;56.832;60.658;2023-02-12T01:21:08;11.82;;;4.63;;
42726;SDS011;28372;56.832;60.658;2023-02-12T01:23:37;8.63;;;4.03;;
42726;SDS011;28372;56.832;60.658;2023-02-12T01:26:05;10.02;;;4.57;;
42726;SDS011;28372;56.832;60.658;2023-02-12T01:28:33;8.60;;;4.38;;
42726;SDS011;28372;56.832;60.658;2023-02-12T01:31:01;9.65;;;4.47;;
42726;SDS011;28372;56.832;60.658;2023-02-12T01:33:31;10.50;;;4.18;;
42726;SDS011;28372;56.832;60.658;2023-02-12T01:35:58;10.60;;;4.45;;
42726;SDS011;28372;56.832;60.658;2023-02-12T01:38:26;9.00;;;4.20;;
42726;SDS011;28372;56.832;60.658;2023-02-12T01:41:00;9.85;;;4.20;;
42726;SDS011;28372;56.832;60.658;2023-02-12T01:43:30;9.52;;;4.47;;
42726;SDS011;28372;56.832;60.658;2023-02-12T01:45:59;10.45;;;4.57;;
42726;SDS011;28372;56.832;60.658;2023-02-12T01:48:28;9.63;;;5.25;;
42726;SDS011;28372;56.832;60.658;2023-02-12T01:51:00;8.73;;;4.28;;
42726;SDS011;28372;56.832;60.658;2023-02-12T01:53:37;8.88;;;4.03;;
42726;SDS011;28372;56.832;60.658;2023-02-12T01:56:07;9.32;;;4.47;;
42726;SDS011;28372;56.832;60.658;2023-02-12T01:58:37;9.07;;;4.50;;
42726;SDS011;28372;56.832;60.658;2023-02-12T02:01:12;10.82;;;5.03;;
42726;SDS011;28372;56.832;60.658;2023-02-12T02:03:44;9.13;;;4.30;;
42726;SDS011;28372;56.832;60.658;2023-02-12T02:06:20;9.05;;;4.32;;
42726;SDS011;28372;56.832;60.658;2023-02-12T02:08:53;10.63;;;4.35;;
42726;SDS011;28372;56.832;60.658;2023-02-12T02:11:22;9.52;;;4.30;;
42726;SDS011;28372;56.832;60.658;2023-02-12T02:14:08;7.85;;;4.05;;
42726;SDS011;28372;56.832;60.658;2023-02-12T02:30:56;10.68;;;4.75;;
42726;SDS011;28372;56.832;60.658;2023-02-12T02:39:39;10.60;;;4.60;;
42726;SDS011;28372;56.832;60.658;2023-02-12T02:42:17;11.18;;;4.28;;
42726;SDS011;28372;56.832;60.658;2023-02-12T02:47:19;8.40;;;4.13;;
42726;SDS011;28372;56.832;60.658;2023-02-12T02:49:52;9.43;;;4.70;;
42726;SDS011;28372;56.832;60.658;2023-02-12T02:52:25;8.75;;;4.60;;
42726;SDS011;28372;56.832;60.658;2023-02-12T02:55:00;6.30;;;3.08;;
42726;SDS011;28372;56.832;60.658;2023-02-12T03:02:39;12.35;;;5.00;;
42726;SDS011;28372;56.832;60.658;2023-02-12T03:05:13;13.88;;;6.00;;
42726;SDS011;28372;56.832;60.658;2023-02-12T03:07:55;13.40;;;8.05;;
42726;SDS011;28372;56.832;60.658;2023-02-12T03:10:30;10.68;;;5.13;;
42726;SDS011;28372;56.832;60.658;2023-02-12T03:13:11;9.18;;;4.93;;
42726;SDS011;28372;56.832;60.658;2023-02-12T03:16:10;12.68;;;6.60;;
42726;SDS011;28372;56.832;60.658;2023-02-12T03:19:04;11.05;;;5.15;;
42726;SDS011;28372;56.832;60.658;2023-02-12T03:26:52;12.55;;;6.35;;
42726;SDS011;28372;56.832;60.658;2023-02-12T03:29:25;13.23;;;6.32;;
42726;SDS011;28372;56.832;60.658;2023-02-12T03:45:23;12.95;;;6.90;;
42726;SDS011;28372;56.832;60.658;2023-02-12T03:53:39;12.55;;;5.70;;
42726;SDS011;28372;56.832;60.658;2023-02-12T03:59:27;15.98;;;7.43;;
42726;SDS011;28372;56.832;60.658;2023-02-12T04:01:57;13.82;;;6.97;;
42726;SDS011;28372;56.832;60.658;2023-02-12T04:04:25;14.20;;;7.05;;
42726;SDS011;28372;56.832;60.658;2023-02-12T04:06:54;14.88;;;6.85;;
42726;SDS011;28372;56.832;60.658;2023-02-12T04:09:22;15.10;;;6.53;;
42726;SDS011;28372;56.832;60.658;2023-02-12T04:21:00;12.48;;;6.15;;
42726;SDS011;28372;56.832;60.658;2023-02-12T04:26:48;16.75;;;8.23;;
42726;SDS011;28372;56.832;60.658;2023-02-12T04:34:56;12.02;;;5.50;;
42726;SDS011;28372;56.832;60.658;2023-02-12T04:37:27;17.50;;;8.25;;
42726;SDS011;28372;56.832;60.658;2023-02-12T04:40:03;14.35;;;6.00;;
42726;SDS011;28372;56.832;60.658;2023-02-12T04:42:43;18.75;;;8.18;;
42726;SDS011;28372;56.832;60.658;2023-02-12T04:45:17;16.38;;;7.10;;
42726;SDS011;28372;56.832;60.658;2023-02-12T04:47:48;16.08;;;6.32;;
42726;SDS011;28372;56.832;60.658;2023-02-12T04:50:16;18.80;;;8.07;;
42726;SDS011;28372;56.832;60.658;2023-02-12T04:52:44;13.43;;;6.78;;
42726;SDS011;28372;56.832;60.658;2023-02-12T04:55:12;17.52;;;8.05;;
42726;SDS011;28372;56.832;60.658;2023-02-12T04:57:40;18.10;;;6.80;;
42726;SDS011;28372;56.832;60.658;2023-02-12T05:00:10;17.52;;;8.73;;
42726;SDS011;28372;56.832;60.658;2023-02-12T05:02:40;18.83;;;7.72;;
42726;SDS011;28372;56.832;60.658;2023-02-12T05:05:07;13.13;;;5.40;;
42726;SDS011;28372;56.832;60.658;2023-02-12T05:07:35;15.35;;;6.47;;
42726;SDS011;28372;56.832;60.658;2023-02-12T05:10:03;13.80;;;6.35;;
42726;SDS011;28372;56.832;60.658;2023-02-12T05:12:31;16.48;;;7.28;;
42726;SDS011;28372;56.832;60.658;2023-02-12T05:14:59;20.50;;;7.47;;
42726;SDS011;28372;56.832;60.658;2023-02-12T05:17:28;18.92;;;7.45;;
42726;SDS011;28372;56.832;60.658;2023-02-12T05:19:56;18.42;;;7.53;;
42726;SDS011;28372;56.832;60.658;2023-02-12T05:22:23;19.35;;;7.63;;
42726;SDS011;28372;56.832;60.658;2023-02-12T05:24:51;14.05;;;6.20;;
42726;SDS011;28372;56.832;60.658;2023-02-12T05:27:19;14.98;;;6.63;;
42726;SDS011;28372;56.832;60.658;2023-02-12T05:29:46;11.27;;;5.43;;
42726;SDS011;28372;56.832;60.658;2023-02-12T05:32:14;16.60;;;6.28;;
42726;SDS011;28372;56.832;60.658;2023-02-12T05:34:42;14.90;;;6.50;;
42726;SDS011;28372;56.832;60.658;2023-02-12T05:37:09;16.85;;;7.00;;
42726;SDS011;28372;56.832;60.658;2023-02-12T05:39:37;14.85;;;6.85;;
42726;SDS011;28372;56.832;60.658;2023-02-12T05:42:05;15.65;;;5.80;;
42726;SDS011;28372;56.832;60.658;2023-02-12T05:44:32;19.15;;;6.55;;
42726;SDS011;28372;56.832;60.658;2023-02-12T05:47:01;13.07;;;7.03;;
42726;SDS011;28372;56.832;60.658;2023-02-12T05:49:29;20.30;;;9.43;;
42726;SDS011;28372;56.832;60.658;2023-02-12T05:51:56;17.88;;;8.25;;
42726;SDS011;28372;56.832;60.658;2023-02-12T05:54:27;18.70;;;7.93;;
42726;SDS011;28372;56.832;60.658;2023-02-12T05:56:55;15.93;;;7.25;;
42726;SDS011;28372;56.832;60.658;2023-02-12T05:59:22;14.32;;;6.75;;
42726;SDS011;28372;56.832;60.658;2023-02-12T06:01:50;14.68;;;6.57;;
42726;SDS011;28372;56.832;60.658;2023-02-12T06:04:20;15.00;;;7.32;;
42726;SDS011;28372;56.832;60.658;2023-02-12T06:06:51;15.82;;;7.22;;
42726;SDS011;28372;56.832;60.658;2023-02-12T06:09:20;13.63;;;6.60;;
42726;SDS011;28372;56.832;60.658;2023-02-12T06:11:48;18.10;;;7.38;;
42726;SDS011;28372;56.832;60.658;2023-02-12T06:14:16;13.65;;;7.35;;
42726;SDS011;28372;56.832;60.658;2023-02-12T06:16:46;13.65;;;6.75;;
42726;SDS011;28372;56.832;60.658;2023-02-12T06:19:16;11.95;;;6.45;;
42726;SDS011;28372;56.832;60.658;2023-02-12T06:21:45;12.27;;;6.30;;
42726;SDS011;28372;56.832;60.658;2023-02-12T06:24:13;11.13;;;6.15;;
42726;SDS011;28372;56.832;60.658;2023-02-12T06:26:43;13.38;;;6.43;;
42726;SDS011;28372;56.832;60.658;2023-02-12T06:29:11;11.40;;;6.00;;
42726;SDS011;28372;56.832;60.658;2023-02-12T06:31:39;10.63;;;5.50;;
42726;SDS011;28372;56.832;60.658;2023-02-12T06:34:08;11.60;;;5.57;;
42726;SDS011;28372;56.832;60.658;2023-02-12T06:36:38;11.68;;;5.72;;
42726;SDS011;28372;56.832;60.658;2023-02-12T06:39:08;12.07;;;4.95;;
42726;SDS011;28372;56.832;60.658;2023-02-12T06:41:37;11.20;;;5.45;;
42726;SDS011;28372;56.832;60.658;2023-02-12T06:44:04;13.10;;;5.72;;
42726;SDS011;28372;56.832;60.658;2023-02-12T06:46:33;11.38;;;5.43;;
42726;SDS011;28372;56.832;60.658;2023-02-12T06:49:00;11.15;;;5.20;;
42726;SDS011;28372;56.832;60.658;2023-02-12T06:51:28;10.52;;;5.68;;
42726;SDS011;28372;56.832;60.658;2023-02-12T06:53:57;10.75;;;5.18;;
42726;SDS011;28372;56.832;60.658;2023-02-12T06:56:25;10.98;;;5.65;;
42726;SDS011;28372;56.832;60.658;2023-02-12T06:58:54;11.57;;;5.95;;
42726;SDS011;28372;56.832;60.658;2023-02-12T07:01:24;12.30;;;5.30;;
42726;SDS011;28372;56.832;60.658;2023-02-12T07:03:55;11.18;;;5.57;;
42726;SDS011;28372;56.832;60.658;2023-02-12T07:06:30;11.15;;;5.75;;
42726;SDS011;28372;56.832;60.658;2023-02-12T07:09:00;13.23;;;6.00;;
42726;SDS011;28372;56.832;60.658;2023-02-12T07:11:29;10.57;;;5.72;;
42726;SDS011;28372;56.832;60.658;2023-02-12T07:13:58;11.50;;;5.82;;
42726;SDS011;28372;56.832;60.658;2023-02-12T07:16:26;13.68;;;5.43;;
42726;SDS011;28372;56.832;60.658;2023-02-12T07:18:54;11.93;;;5.45;;
42726;SDS011;28372;56.832;60.658;2023-02-12T07:21:22;11.20;;;5.70;;
42726;SDS011;28372;56.832;60.658;2023-02-12T07:23:50;11.00;;;5.65;;
42726;SDS011;28372;56.832;60.658;2023-02-12T07:26:19;12.23;;;6.28;;
42726;SDS011;28372;56.832;60.658;2023-02-12T07:28:48;9.65;;;5.55;;
42726;SDS011;28372;56.832;60.658;2023-02-12T07:31:17;10.43;;;4.97;;
42726;SDS011;28372;56.832;60.658;2023-02-12T07:33:47;11.93;;;5.85;;
42726;SDS011;28372;56.832;60.658;2023-02-12T07:36:16;11.00;;;6.10;;
42726;SDS011;28372;56.832;60.658;2023-02-12T07:38:45;11.38;;;6.00;;
42726;SDS011;28372;56.832;60.658;2023-02-12T07:41:14;10.95;;;5.93;;
42726;SDS011;28372;56.832;60.658;2023-02-12T07:43:47;10.80;;;6.10;;
42726;SDS011;28372;56.832;60.658;2023-02-12T07:46:17;11.35;;;6.20;;
42726;SDS011;28372;56.832;60.658;2023-02-12T07:48:46;12.82;;;6.72;;
42726;SDS011;28372;56.832;60.658;2023-02-12T07:51:15;11.40;;;6.53;;
42726;SDS011;28372;56.832;60.658;2023-02-12T07:53:45;13.45;;;7.55;;
42726;SDS011;28372;56.832;60.658;2023-02-12T07:56:15;16.25;;;7.35;;
42726;SDS011;28372;56.832;60.658;2023-02-12T07:58:48;16.75;;;8.90;;
42726;SDS011;28372;56.832;60.658;2023-02-12T08:01:18;14.95;;;8.70;;
42726;SDS011;28372;56.832;60.658;2023-02-12T08:03:46;14.88;;;8.20;;
42726;SDS011;28372;56.832;60.658;2023-02-12T08:06:16;16.27;;;8.95;;
42726;SDS011;28372;56.832;60.658;2023-02-12T08:08:46;11.98;;;6.90;;
42726;SDS011;28372;56.832;60.658;2023-02-12T08:11:15;16.40;;;8.10;;
42726;SDS011;28372;56.832;60.658;2023-02-12T08:13:45;15.45;;;7.15;;
42726;SDS011;28372;56.832;60.658;2023-02-12T08:16:14;14.45;;;7.13;;
42726;SDS011;28372;56.832;60.658;2023-02-12T08:18:46;17.05;;;8.10;;
42726;SDS011;28372;56.832;60.658;2023-02-12T08:21:15;15.50;;;7.88;;
42726;SDS011;28372;56.832;60.658;2023-02-12T08:23:45;18.45;;;8.13;;
42726;SDS011;28372;56.832;60.658;2023-02-12T08:26:18;14.18;;;7.45;;
42726;SDS011;28372;56.832;60.658;2023-02-12T08:28:49;13.85;;;7.40;;
42726;SDS011;28372;56.832;60.658;2023-02-12T08:31:20;12.82;;;6.85;;
42726;SDS011;28372;56.832;60.658;2023-02-12T08:33:51;15.68;;;7.95;;
42726;SDS011;28372;56.832;60.658;2023-02-12T08:36:21;17.33;;;8.68;;
42726;SDS011;28372;56.832;60.658;2023-02-12T08:38:53;15.32;;;7.03;;
42726;SDS011;28372;56.832;60.658;2023-02-12T08:41:24;13.73;;;7.10;;
42726;SDS011;28372;56.832;60.658;2023-02-12T08:43:58;13.63;;;6.97;;
42726;SDS011;28372;56.832;60.658;2023-02-12T08:46:28;12.38;;;6.75;;
42726;SDS011;28372;56.832;60.658;2023-02-12T08:48:58;14.02;;;6.88;;
42726;SDS011;28372;56.832;60.658;2023-02-12T08:51:29;11.95;;;6.20;;
42726;SDS011;28372;56.832;60.658;2023-02-12T08:53:59;13.48;;;7.00;;
42726;SDS011;28372;56.832;60.658;2023-02-12T08:56:28;14.93;;;7.80;;
42726;SDS011;28372;56.832;60.658;2023-02-12T08:58:57;12.25;;;6.22;;
42726;SDS011;28372;56.832;60.658;2023-02-12T09:01:27;14.52;;;6.45;;
42726;SDS011;28372;56.832;60.658;2023-02-12T09:03:56;11.35;;;5.68;;
42726;SDS011;28372;56.832;60.658;2023-02-12T09:06:25;12.75;;;5.60;;
42726;SDS011;28372;56.832;60.658;2023-02-12T09:08:54;12.30;;;5.85;;
42726;SDS011;28372;56.832;60.658;2023-02-12T09:11:23;12.20;;;5.72;;
42726;SDS011;28372;56.832;60.658;2023-02-12T09:13:59;13.48;;;7.85;;
42726;SDS011;28372;56.832;60.658;2023-02-12T09:16:28;11.80;;;6.63;;
42726;SDS011;28372;56.832;60.658;2023-02-12T09:18:58;13.18;;;5.95;;
42726;SDS011;28372;56.832;60.658;2023-02-12T09:21:26;11.27;;;5.35;;
42726;SDS011;28372;56.832;60.658;2023-02-12T09:23:54;12.05;;;5.03;;
42726;SDS011;28372;56.832;60.658;2023-02-12T09:26:22;12.35;;;6.22;;
42726;SDS011;28372;56.832;60.658;2023-02-12T09:28:54;13.20;;;5.72;;
42726;SDS011;28372;56.832;60.658;2023-02-12T09:31:23;9.30;;;4.55;;
42726;SDS011;28372;56.832;60.658;2023-02-12T09:33:53;12.98;;;7.05;;
42726;SDS011;28372;56.832;60.658;2023-02-12T09:36:24;10.43;;;4.95;;
42726;SDS011;28372;56.832;60.658;2023-02-12T09:38:51;10.82;;;5.13;;
42726;SDS011;28372;56.832;60.658;2023-02-12T09:46:57;10.98;;;5.72;;
42726;SDS011;28372;56.832;60.658;2023-02-12T09:49:48;11.23;;;6.20;;
42726;SDS011;28372;56.832;60.658;2023-02-12T09:52:17;10.35;;;5.28;;
42726;SDS011;28372;56.832;60.658;2023-02-12T09:54:47;8.98;;;3.97;;
42726;SDS011;28372;56.832;60.658;2023-02-12T09:57:16;12.30;;;6.60;;
42726;SDS011;28372;56.832;60.658;2023-02-12T09:59:51;8.18;;;4.40;;
42726;SDS011;28372;56.832;60.658;2023-02-12T10:02:24;11.63;;;4.80;;
42726;SDS011;28372;56.832;60.658;2023-02-12T10:04:52;11.00;;;5.97;;
42726;SDS011;28372;56.832;60.658;2023-02-12T10:26:17;3.03;;;1.75;;
42726;SDS011;28372;56.832;60.658;2023-02-12T10:29:03;6.93;;;2.85;;
42726;SDS011;28372;56.832;60.658;2023-02-12T10:31:41;6.65;;;2.95;;
42726;SDS011;28372;56.832;60.658;2023-02-12T10:34:23;8.68;;;4.88;;
42726;SDS011;28372;56.832;60.658;2023-02-12T10:36:53;7.38;;;2.50;;
42726;SDS011;28372;56.832;60.658;2023-02-12T10:39:35;7.53;;;3.20;;
42726;SDS011;28372;56.832;60.658;2023-02-12T10:42:11;8.00;;;4.22;;
42726;SDS011;28372;56.832;60.658;2023-02-12T10:45:00;12.07;;;6.07;;
42726;SDS011;28372;56.832;60.658;2023-02-12T10:47:28;9.55;;;4.18;;
42726;SDS011;28372;56.832;60.658;2023-02-12T10:49:57;11.63;;;5.32;;
42726;SDS011;28372;56.832;60.658;2023-02-12T10:52:38;7.28;;;2.72;;
42726;SDS011;28372;56.832;60.658;2023-02-12T10:55:29;11.65;;;5.22;;
42726;SDS011;28372;56.832;60.658;2023-02-12T10:58:01;9.55;;;4.18;;
42726;SDS011;28372;56.832;60.658;2023-02-12T11:00:34;7.95;;;4.53;;
42726;SDS011;28372;56.832;60.658;2023-02-12T11:08:06;7.75;;;3.80;;
42726;SDS011;28372;56.832;60.658;2023-02-12T11:10:52;8.68;;;4.28;;
42726;SDS011;28372;56.832;60.658;2023-02-12T11:13:26;6.55;;;2.83;;
42726;SDS011;28372;56.832;60.658;2023-02-12T11:15:54;7.68;;;3.75;;
42726;SDS011;28372;56.832;60.658;2023-02-12T11:18:26;7.22;;;3.05;;
42726;SDS011;28372;56.832;60.658;2023-02-12T11:21:00;6.43;;;2.95;;
42726;SDS011;28372;56.832;60.658;2023-02-12T11:26:08;5.85;;;3.30;;
42726;SDS011;28372;56.832;60.658;2023-02-12T11:31:27;6.32;;;3.30;;
42726;SDS011;28372;56.832;60.658;2023-02-12T11:36:49;6.97;;;3.30;;
42726;SDS011;28372;56.832;60.658;2023-02-12T11:39:27;9.20;;;4.07;;
42726;SDS011;28372;56.832;60.658;2023-02-12T11:42:14;4.35;;;2.22;;
42726;SDS011;28372;56.832;60.658;2023-02-12T11:44:47;6.18;;;3.08;;
42726;SDS011;28372;56.832;60.658;2023-02-12T11:50:04;6.03;;;2.65;;
42726;SDS011;28372;56.832;60.658;2023-02-12T11:52:36;5.63;;;2.00;;
42726;SDS011;28372;56.832;60.658;2023-02-12T11:55:13;9.90;;;3.60;;
42726;SDS011;28372;56.832;60.658;2023-02-12T11:57:50;6.25;;;2.90;;
42726;SDS011;28372;56.832;60.658;2023-02-12T12:03:03;9.77;;;3.35;;
42726;SDS011;28372;56.832;60.658;2023-02-12T12:05:45;5.93;;;2.10;;
42726;SDS011;28372;56.832;60.658;2023-02-12T12:08:21;6.82;;;3.20;;
42726;SDS011;28372;56.832;60.658;2023-02-12T12:11:15;7.32;;;3.63;;
42726;SDS011;28372;56.832;60.658;2023-02-12T12:16:26;6.47;;;3.15;;
42726;SDS011;28372;56.832;60.658;2023-02-12T12:23:10;5.95;;;3.60;;
42726;SDS011;28372;56.832;60.658;2023-02-12T12:25:36;6.47;;;3.42;;
42726;SDS011;28372;56.832;60.658;2023-02-12T12:31:01;7.03;;;3.03;;
42726;SDS011;28372;56.832;60.658;2023-02-12T12:33:38;10.27;;;4.55;;
42726;SDS011;28372;56.832;60.658;2023-02-12T12:39:05;7.40;;;3.63;;
42726;SDS011;28372;56.832;60.658;2023-02-12T12:50:26;10.27;;;4.68;;
42726;SDS011;28372;56.832;60.658;2023-02-12T13:07:23;10.63;;;4.00;;
42726;SDS011;28372;56.832;60.658;2023-02-12T13:13:47;10.00;;;4.82;;
42726;SDS011;28372;56.832;60.658;2023-02-12T13:27:29;9.57;;;4.38;;
42726;SDS011;28372;56.832;60.658;2023-02-12T13:30:06;9.80;;;4.20;;
42726;SDS011;28372;56.832;60.658;2023-02-12T13:32:47;7.20;;;3.58;;
42726;SDS011;28372;56.832;60.658;2023-02-12T13:35:28;7.85;;;3.78;;
42726;SDS011;28372;56.832;60.658;2023-02-12T13:37:59;9.02;;;4.20;;
42726;SDS011;28372;56.832;60.658;2023-02-12T13:40:29;10.15;;;3.97;;
42726;SDS011;28372;56.832;60.658;2023-02-12T13:48:16;8.27;;;3.78;;
42726;SDS011;28372;56.832;60.658;2023-02-12T13:53:30;6.93;;;3.13;;
42726;SDS011;28372;56.832;60.658;2023-02-12T13:56:33;9.40;;;4.45;;
42726;SDS011;28372;56.832;60.658;2023-02-12T14:01:58;9.65;;;3.47;;
42726;SDS011;28372;56.832;60.658;2023-02-12T14:04:30;11.95;;;4.50;;
42726;SDS011;28372;56.832;60.658;2023-02-12T14:07:01;8.25;;;2.88;;
42726;SDS011;28372;56.832;60.658;2023-02-12T14:09:38;8.73;;;4.57;;
42726;SDS011;28372;56.832;60.658;2023-02-12T14:12:14;11.77;;;5.97;;
42726;SDS011;28372;56.832;60.658;2023-02-12T14:15:08;9.57;;;4.22;;
42726;SDS011;28372;56.832;60.658;2023-02-12T14:17:52;9.15;;;3.95;;
42726;SDS011;28372;56.832;60.658;2023-02-12T14:20:31;13.73;;;6.32;;
42726;SDS011;28372;56.832;60.658;2023-02-12T14:25:56;11.23;;;4.82;;
42726;SDS011;28372;56.832;60.658;2023-02-12T14:33:48;8.38;;;4.53;;
42726;SDS011;28372;56.832;60.658;2023-02-12T14:39:02;11.85;;;5.32;;
42726;SDS011;28372;56.832;60.658;2023-02-12T14:41:33;9.50;;;3.92;;
42726;SDS011;28372;56.832;60.658;2023-02-12T14:46:47;12.77;;;5.50;;
42726;SDS011;28372;56.832;60.658;2023-02-12T14:54:30;9.52;;;4.80;;
42726;SDS011;28372;56.832;60.658;2023-02-12T14:57:04;11.27;;;5.03;;
42726;SDS011;28372;56.832;60.658;2023-02-12T14:59:39;8.63;;;3.43;;
42726;SDS011;28372;56.832;60.658;2023-02-12T15:02:17;10.38;;;4.85;;
42726;SDS011;28372;56.832;60.658;2023-02-12T15:05:02;10.23;;;4.35;;
42726;SDS011;28372;56.832;60.658;2023-02-12T15:10:37;12.13;;;4.47;;
42726;SDS011;28372;56.832;60.658;2023-02-12T15:13:14;7.57;;;3.60;;
42726;SDS011;28372;56.832;60.658;2023-02-12T15:15:52;9.43;;;3.80;;
42726;SDS011;28372;56.832;60.658;2023-02-12T15:21:24;7.07;;;3.25;;
42726;SDS011;28372;56.832;60.658;2023-02-12T15:26:43;10.18;;;3.72;;
42726;SDS011;28372;56.832;60.658;2023-02-12T15:29:27;7.22;;;3.38;;
42726;SDS011;28372;56.832;60.658;2023-02-12T15:32:04;7.82;;;3.97;;
42726;SDS011;28372;56.832;60.658;2023-02-12T15:34:35;17.23;;;7.10;;
42726;SDS011;28372;56.832;60.658;2023-02-12T15:37:07;16.00;;;6.63;;
42726;SDS011;28372;56.832;60.658;2023-02-12T15:39:43;13.38;;;5.82;;
42726;SDS011;28372;56.832;60.658;2023-02-12T15:42:27;12.95;;;5.50;;
42726;SDS011;28372;56.832;60.658;2023-02-12T15:45:16;12.40;;;5.18;;
42726;SDS011;28372;56.832;60.658;2023-02-12T15:47:58;15.77;;;6.95;;
42726;SDS011;28372;56.832;60.658;2023-02-12T15:50:28;14.35;;;6.15;;
42726;SDS011;28372;56.832;60.658;2023-02-12T15:52:58;15.13;;;7.03;;
42726;SDS011;28372;56.832;60.658;2023-02-12T15:55:27;12.82;;;5.90;;
42726;SDS011;28372;56.832;60.658;2023-02-12T15:57:59;13.00;;;5.72;;
42726;SDS011;28372;56.832;60.658;2023-02-12T16:00:37;10.82;;;5.07;;
42726;SDS011;28372;56.832;60.658;2023-02-12T16:03:24;13.02;;;5.40;;
42726;SDS011;28372;56.832;60.658;2023-02-12T16:06:02;17.60;;;7.75;;
42726;SDS011;28372;56.832;60.658;2023-02-12T16:08:45;23.40;;;5.85;;
42726;SDS011;28372;56.832;60.658;2023-02-12T16:11:16;14.87;;;6.43;;
42726;SDS011;28372;56.832;60.658;2023-02-12T16:16:21;16.92;;;5.90;;
42726;SDS011;28372;56.832;60.658;2023-02-12T16:21:38;14.73;;;6.07;;
42726;SDS011;28372;56.832;60.658;2023-02-12T16:24:16;13.05;;;5.05;;
42726;SDS011;28372;56.832;60.658;2023-02-12T16:26:55;16.35;;;6.28;;
42726;SDS011;28372;56.832;60.658;2023-02-12T16:29:25;10.13;;;4.40;;
42726;SDS011;28372;56.832;60.658;2023-02-12T16:31:58;19.58;;;7.55;;
42726;SDS011;28372;56.832;60.658;2023-02-12T16:34:31;15.70;;;6.68;;
42726;SDS011;28372;56.832;60.658;2023-02-12T16:36:59;12.48;;;5.32;;
42726;SDS011;28372;56.832;60.658;2023-02-12T16:42:23;16.42;;;6.88;;
42726;SDS011;28372;56.832;60.658;2023-02-12T16:44:55;11.73;;;5.10;;
42726;SDS011;28372;56.832;60.658;2023-02-12T16:47:23;6.97;;;2.70;;
42726;SDS011;28372;56.832;60.658;2023-02-12T16:49:59;14.70;;;5.60;;
42726;SDS011;28372;56.832;60.658;2023-02-12T16:52:33;15.68;;;6.30;;
42726;SDS011;28372;56.832;60.658;2023-02-12T16:55:05;14.20;;;6.30;;
42726;SDS011;28372;56.832;60.658;2023-02-12T16:57:39;16.50;;;7.28;;
42726;SDS011;28372;56.832;60.658;2023-02-12T17:00:07;17.45;;;6.90;;
42726;SDS011;28372;56.832;60.658;2023-02-12T17:02:38;10.52;;;4.30;;
42726;SDS011;28372;56.832;60.658;2023-02-12T17:05:05;11.95;;;4.85;;
42726;SDS011;28372;56.832;60.658;2023-02-12T17:07:33;13.40;;;5.35;;
42726;SDS011;28372;56.832;60.658;2023-02-12T17:10:01;12.68;;;5.55;;
42726;SDS011;28372;56.832;60.658;2023-02-12T17:12:30;11.10;;;5.03;;
42726;SDS011;28372;56.832;60.658;2023-02-12T17:15:01;16.70;;;4.45;;
42726;SDS011;28372;56.832;60.658;2023-02-12T17:17:30;9.48;;;2.88;;
42726;SDS011;28372;56.832;60.658;2023-02-12T17:19:58;15.50;;;4.80;;
42726;SDS011;28372;56.832;60.658;2023-02-12T17:22:25;8.93;;;3.80;;
42726;SDS011;28372;56.832;60.658;2023-02-12T17:24:53;7.10;;;3.70;;
42726;SDS011;28372;56.832;60.658;2023-02-12T17:27:21;6.35;;;3.00;;
42726;SDS011;28372;56.832;60.658;2023-02-12T17:29:52;3.50;;;2.05;;
42726;SDS011;28372;56.832;60.658;2023-02-12T17:32:20;13.98;;;5.13;;
42726;SDS011;28372;56.832;60.658;2023-02-12T17:34:50;8.27;;;4.07;;
42726;SDS011;28372;56.832;60.658;2023-02-12T17:37:18;8.88;;;3.28;;
42726;SDS011;28372;56.832;60.658;2023-02-12T17:39:50;6.55;;;3.13;;
42726;SDS011;28372;56.832;60.658;2023-02-12T17:42:18;7.55;;;3.30;;
42726;SDS011;28372;56.832;60.658;2023-02-12T17:44:46;8.88;;;3.08;;
42726;SDS011;28372;56.832;60.658;2023-02-12T17:47:17;15.73;;;5.72;;
42726;SDS011;28372;56.832;60.658;2023-02-12T17:49:45;10.57;;;4.95;;
42726;SDS011;28372;56.832;60.658;2023-02-12T17:52:12;7.75;;;3.55;;
42726;SDS011;28372;56.832;60.658;2023-02-12T17:54:42;14.15;;;4.63;;
42726;SDS011;28372;56.832;60.658;2023-02-12T17:57:12;5.75;;;2.75;;
42726;SDS011;28372;56.832;60.658;2023-02-12T17:59:41;15.20;;;8.15;;
42726;SDS011;28372;56.832;60.658;2023-02-12T18:02:23;6.57;;;3.05;;
42726;SDS011;28372;56.832;60.658;2023-02-12T18:04:51;17.67;;;9.23;;
42726;SDS011;28372;56.832;60.658;2023-02-12T18:07:19;8.00;;;3.72;;
42726;SDS011;28372;56.832;60.658;2023-02-12T18:09:47;6.22;;;2.50;;
42726;SDS011;28372;56.832;60.658;2023-02-12T18:12:15;7.32;;;4.07;;
42726;SDS011;28372;56.832;60.658;2023-02-12T18:14:42;6.88;;;3.33;;
42726;SDS011;28372;56.832;60.658;2023-02-12T18:17:10;11.25;;;4.80;;
42726;SDS011;28372;56.832;60.658;2023-02-12T18:19:38;15.07;;;6.45;;
42726;SDS011;28372;56.832;60.658;2023-02-12T18:22:06;13.20;;;6.28;;
42726;SDS011;28372;56.832;60.658;2023-02-12T18:24:33;12.82;;;5.57;;
42726;SDS011;28372;56.832;60.658;2023-02-12T18:27:01;8.00;;;3.22;;